Mardan Weather



Mardan's Current Weather

Temprature 33o haze

haze

Rain: 0 %

Min Temprature33o
Max Temprature33o
Humidity40
Wind Speed5.14 m/h
Sun Rise05:15:44
Sun Set19:00:50
Current Time: 08-May-2021 15:50:54
Lat/Lon: 34.2019, 72.0525




Mardan's Geo Location



Mardan's Weather Forecast

Time Overall Temp Min Temp Max Temp Humidity Wind Speed Rain
08-May-2021 (Sat)
17:00:00 scattered clouds 33.000 33.000 34.190 40 4.32 m/h 0 %
20:00:00 scattered clouds 31.270 27.810 31.270 38 1.56 m/h 0 %
23:00:00 scattered clouds 27.790 25.180 27.790 45 2.39 m/h 0 %
09-May-2021 (Sun)
02:00:00 broken clouds 24.540 24.540 24.540 47 0.66 m/h 0 %
05:00:00 broken clouds 23.420 23.420 23.420 48 1.96 m/h 0 %
08:00:00 clear sky 28.330 28.330 28.330 35 1.12 m/h 0 %
11:00:00 clear sky 33.920 33.920 33.920 25 0.52 m/h 0 %
14:00:00 clear sky 36.840 36.840 36.840 19 1.63 m/h 0 %
17:00:00 clear sky 37.230 37.230 37.230 16 3.26 m/h 0 %
20:00:00 clear sky 31.250 31.250 31.250 26 1.42 m/h 0 %
23:00:00 clear sky 29.030 29.030 29.030 29 1.67 m/h 0 %
10-May-2021 (Mon)
02:00:00 light rain 24.970 24.970 24.970 47 3.75 m/h 28 %
05:00:00 light rain 24.030 24.030 24.030 49 2.19 m/h 57 %
08:00:00 light rain 28.010 28.010 28.010 39 1.71 m/h 33 %
11:00:00 overcast clouds 33.180 33.180 33.180 27 1.35 m/h 0 %
14:00:00 broken clouds 36.410 36.410 36.410 21 2.08 m/h 0 %
17:00:00 broken clouds 36.840 36.840 36.840 20 1.64 m/h 0 %
20:00:00 light rain 31.620 31.620 31.620 28 1.87 m/h 19 %
23:00:00 broken clouds 28.440 28.440 28.440 36 2.01 m/h 0 %
11-May-2021 (Tue)
02:00:00 scattered clouds 26.380 26.380 26.380 42 1.44 m/h 0 %
05:00:00 light rain 24.660 24.660 24.660 50 1.54 m/h 53 %
08:00:00 light rain 28.980 28.980 28.980 38 0.76 m/h 104 %
11:00:00 light rain 33.840 33.840 33.840 27 1.71 m/h 11 %
14:00:00 overcast clouds 36.840 36.840 36.840 22 2.6 m/h 0 %
17:00:00 broken clouds 37.330 37.330 37.330 20 2.48 m/h 0 %
20:00:00 light rain 26.490 26.490 26.490 45 6.78 m/h 101 %
23:00:00 light rain 21.760 21.760 21.760 73 5.06 m/h 186 %
12-May-2021 (Wed)
02:00:00 light rain 22.770 22.770 22.770 64 1.63 m/h 13 %
05:00:00 overcast clouds 22.370 22.370 22.370 62 2.27 m/h 0 %
08:00:00 overcast clouds 25.850 25.850 25.850 47 0.46 m/h 0 %
11:00:00 light rain 30.150 30.150 30.150 33 2.38 m/h 35 %
14:00:00 scattered clouds 33.240 33.240 33.240 26 3.16 m/h 0 %
17:00:00 few clouds 33.480 33.480 33.480 25 0.84 m/h 0 %
20:00:00 light rain 25.160 25.160 25.160 52 2.73 m/h 53 %
23:00:00 light rain 24.190 24.190 24.190 63 2.89 m/h 294 %
13-May-2021 (Thu)
02:00:00 overcast clouds 22.340 22.340 22.340 72 2.85 m/h 0 %
05:00:00 overcast clouds 22.450 22.450 22.450 69 0.77 m/h 0 %
08:00:00 overcast clouds 24.080 24.080 24.080 61 1.54 m/h 0 %
11:00:00 overcast clouds 26.570 26.570 26.570 43 4.28 m/h 0 %
14:00:00 overcast clouds 28.520 28.520 28.520 32 3.74 m/h 0 %

Famous Cities (60)